sensor_id;sensor_type;location;lat;lon;timestamp;P1;durP1;ratioP1;P2;durP2;ratioP2
21837;SDS011;11081;45.946;6.140;2023-11-21T00:01:41;16.45;;;4.93;;
21837;SDS011;11081;45.946;6.140;2023-11-21T00:04:09;11.25;;;4.60;;
21837;SDS011;11081;45.946;6.140;2023-11-21T00:06:37;10.80;;;4.38;;
21837;SDS011;11081;45.946;6.140;2023-11-21T00:09:07;11.77;;;3.88;;
21837;SDS011;11081;45.946;6.140;2023-11-21T00:11:36;13.32;;;4.20;;
21837;SDS011;11081;45.946;6.140;2023-11-21T00:14:04;12.77;;;3.92;;
21837;SDS011;11081;45.946;6.140;2023-11-21T00:16:34;11.55;;;3.22;;
21837;SDS011;11081;45.946;6.140;2023-11-21T00:19:02;9.38;;;3.33;;
21837;SDS011;11081;45.946;6.140;2023-11-21T00:21:30;13.93;;;2.97;;
21837;SDS011;11081;45.946;6.140;2023-11-21T00:23:57;8.32;;;2.95;;
21837;SDS011;11081;45.946;6.140;2023-11-21T00:26:25;10.15;;;3.38;;
21837;SDS011;11081;45.946;6.140;2023-11-21T00:29:00;9.90;;;2.63;;
21837;SDS011;11081;45.946;6.140;2023-11-21T00:31:29;10.80;;;2.90;;
21837;SDS011;11081;45.946;6.140;2023-11-21T00:33:58;5.00;;;2.38;;
21837;SDS011;11081;45.946;6.140;2023-11-21T00:36:26;10.98;;;2.60;;
21837;SDS011;11081;45.946;6.140;2023-11-21T00:38:54;7.05;;;2.38;;
21837;SDS011;11081;45.946;6.140;2023-11-21T00:41:22;10.00;;;2.40;;
21837;SDS011;11081;45.946;6.140;2023-11-21T00:44:00;8.02;;;2.25;;
21837;SDS011;11081;45.946;6.140;2023-11-21T00:46:27;7.63;;;1.83;;
21837;SDS011;11081;45.946;6.140;2023-11-21T00:48:55;9.05;;;2.60;;
21837;SDS011;11081;45.946;6.140;2023-11-21T00:51:25;13.32;;;2.95;;
21837;SDS011;11081;45.946;6.140;2023-11-21T00:53:53;7.20;;;2.20;;
21837;SDS011;11081;45.946;6.140;2023-11-21T00:56:21;9.45;;;2.42;;
21837;SDS011;11081;45.946;6.140;2023-11-21T00:58:49;12.68;;;2.97;;
21837;SDS011;11081;45.946;6.140;2023-11-21T01:01:19;10.90;;;2.42;;
21837;SDS011;11081;45.946;6.140;2023-11-21T01:03:47;5.80;;;2.53;;
21837;SDS011;11081;45.946;6.140;2023-11-21T01:06:15;6.43;;;2.38;;
21837;SDS011;11081;45.946;6.140;2023-11-21T01:08:44;9.45;;;2.60;;
21837;SDS011;11081;45.946;6.140;2023-11-21T01:11:12;7.25;;;3.00;;
21837;SDS011;11081;45.946;6.140;2023-11-21T01:13:40;9.57;;;3.33;;
21837;SDS011;11081;45.946;6.140;2023-11-21T01:16:08;6.10;;;3.08;;
21837;SDS011;11081;45.946;6.140;2023-11-21T01:18:36;11.68;;;3.33;;
21837;SDS011;11081;45.946;6.140;2023-11-21T01:21:05;10.48;;;3.17;;
21837;SDS011;11081;45.946;6.140;2023-11-21T01:23:33;7.10;;;3.17;;
21837;SDS011;11081;45.946;6.140;2023-11-21T01:26:03;13.50;;;3.38;;
21837;SDS011;11081;45.946;6.140;2023-11-21T01:28:31;10.23;;;2.80;;
21837;SDS011;11081;45.946;6.140;2023-11-21T01:30:59;6.47;;;2.60;;
21837;SDS011;11081;45.946;6.140;2023-11-21T01:33:26;8.73;;;3.53;;
21837;SDS011;11081;45.946;6.140;2023-11-21T01:35:54;8.52;;;2.70;;
21837;SDS011;11081;45.946;6.140;2023-11-21T01:38:22;7.68;;;2.75;;
21837;SDS011;11081;45.946;6.140;2023-11-21T01:40:50;9.13;;;3.20;;
21837;SDS011;11081;45.946;6.140;2023-11-21T01:43:20;10.63;;;3.30;;
21837;SDS011;11081;45.946;6.140;2023-11-21T01:45:48;9.15;;;2.63;;
21837;SDS011;11081;45.946;6.140;2023-11-21T01:48:16;8.93;;;3.05;;
21837;SDS011;11081;45.946;6.140;2023-11-21T01:50:45;8.40;;;3.28;;
21837;SDS011;11081;45.946;6.140;2023-11-21T01:53:13;7.95;;;3.10;;
21837;SDS011;11081;45.946;6.140;2023-11-21T01:55:41;11.23;;;2.97;;
21837;SDS011;11081;45.946;6.140;2023-11-21T01:58:10;7.18;;;2.72;;
21837;SDS011;11081;45.946;6.140;2023-11-21T02:00:41;11.70;;;2.30;;
21837;SDS011;11081;45.946;6.140;2023-11-21T02:03:09;6.65;;;2.88;;
21837;SDS011;11081;45.946;6.140;2023-11-21T02:05:38;6.65;;;2.50;;
21837;SDS011;11081;45.946;6.140;2023-11-21T02:08:06;10.30;;;2.92;;
21837;SDS011;11081;45.946;6.140;2023-11-21T02:13:40;8.27;;;2.30;;
21837;SDS011;11081;45.946;6.140;2023-11-21T02:16:11;9.63;;;2.42;;
21837;SDS011;11081;45.946;6.140;2023-11-21T02:18:40;10.38;;;3.25;;
21837;SDS011;11081;45.946;6.140;2023-11-21T02:21:08;4.65;;;2.20;;
21837;SDS011;11081;45.946;6.140;2023-11-21T02:23:37;15.75;;;2.80;;
21837;SDS011;11081;45.946;6.140;2023-11-21T02:26:08;10.60;;;3.00;;
21837;SDS011;11081;45.946;6.140;2023-11-21T02:28:36;8.13;;;2.70;;
21837;SDS011;11081;45.946;6.140;2023-11-21T02:31:05;8.25;;;2.70;;
21837;SDS011;11081;45.946;6.140;2023-11-21T02:33:34;9.88;;;2.78;;
21837;SDS011;11081;45.946;6.140;2023-11-21T02:36:02;11.57;;;2.67;;
21837;SDS011;11081;45.946;6.140;2023-11-21T02:38:30;11.13;;;3.00;;
21837;SDS011;11081;45.946;6.140;2023-11-21T02:40:59;8.65;;;2.95;;
21837;SDS011;11081;45.946;6.140;2023-11-21T02:43:27;4.90;;;2.42;;
21837;SDS011;11081;45.946;6.140;2023-11-21T02:45:56;7.28;;;2.80;;
21837;SDS011;11081;45.946;6.140;2023-11-21T02:48:24;5.88;;;2.72;;
21837;SDS011;11081;45.946;6.140;2023-11-21T02:50:52;5.57;;;2.88;;
21837;SDS011;11081;45.946;6.140;2023-11-21T02:53:20;6.75;;;2.83;;
21837;SDS011;11081;45.946;6.140;2023-11-21T02:55:48;8.32;;;3.80;;
21837;SDS011;11081;45.946;6.140;2023-11-21T02:58:17;6.85;;;2.90;;
21837;SDS011;11081;45.946;6.140;2023-11-21T03:00:45;9.13;;;3.20;;
21837;SDS011;11081;45.946;6.140;2023-11-21T03:03:13;9.15;;;3.13;;
21837;SDS011;11081;45.946;6.140;2023-11-21T03:05:41;6.90;;;2.88;;
21837;SDS011;11081;45.946;6.140;2023-11-21T03:08:09;8.52;;;2.80;;
21837;SDS011;11081;45.946;6.140;2023-11-21T03:10:37;9.98;;;3.05;;
21837;SDS011;11081;45.946;6.140;2023-11-21T03:13:05;9.48;;;3.03;;
21837;SDS011;11081;45.946;6.140;2023-11-21T03:15:34;6.05;;;2.85;;
21837;SDS011;11081;45.946;6.140;2023-11-21T03:18:02;6.28;;;2.90;;
21837;SDS011;11081;45.946;6.140;2023-11-21T03:20:31;12.02;;;3.22;;
21837;SDS011;11081;45.946;6.140;2023-11-21T03:22:59;12.23;;;3.30;;
21837;SDS011;11081;45.946;6.140;2023-11-21T03:25:27;10.32;;;3.15;;
21837;SDS011;11081;45.946;6.140;2023-11-21T03:27:55;12.20;;;3.88;;
21837;SDS011;11081;45.946;6.140;2023-11-21T03:30:23;10.32;;;3.65;;
21837;SDS011;11081;45.946;6.140;2023-11-21T03:32:53;11.85;;;3.13;;
21837;SDS011;11081;45.946;6.140;2023-11-21T03:35:21;12.07;;;2.92;;
21837;SDS011;11081;45.946;6.140;2023-11-21T03:37:49;5.40;;;2.80;;
21837;SDS011;11081;45.946;6.140;2023-11-21T03:40:17;10.20;;;3.30;;
21837;SDS011;11081;45.946;6.140;2023-11-21T03:42:45;9.13;;;2.83;;
21837;SDS011;11081;45.946;6.140;2023-11-21T03:45:13;9.55;;;2.85;;
21837;SDS011;11081;45.946;6.140;2023-11-21T03:47:41;10.10;;;2.78;;
21837;SDS011;11081;45.946;6.140;2023-11-21T03:50:10;10.40;;;3.55;;
21837;SDS011;11081;45.946;6.140;2023-11-21T03:52:38;14.05;;;5.32;;
21837;SDS011;11081;45.946;6.140;2023-11-21T03:55:06;14.95;;;6.57;;
21837;SDS011;11081;45.946;6.140;2023-11-21T03:57:35;14.75;;;6.95;;
21837;SDS011;11081;45.946;6.140;2023-11-21T04:00:03;15.25;;;7.32;;
21837;SDS011;11081;45.946;6.140;2023-11-21T04:02:38;16.52;;;7.60;;
21837;SDS011;11081;45.946;6.140;2023-11-21T04:05:07;15.20;;;7.15;;
21837;SDS011;11081;45.946;6.140;2023-11-21T04:07:37;14.70;;;7.32;;
21837;SDS011;11081;45.946;6.140;2023-11-21T04:10:05;14.00;;;7.25;;
21837;SDS011;11081;45.946;6.140;2023-11-21T04:12:35;12.50;;;6.70;;
21837;SDS011;11081;45.946;6.140;2023-11-21T04:15:03;13.15;;;6.43;;
21837;SDS011;11081;45.946;6.140;2023-11-21T04:17:31;20.00;;;7.82;;
21837;SDS011;11081;45.946;6.140;2023-11-21T04:19:59;13.68;;;7.78;;
21837;SDS011;11081;45.946;6.140;2023-11-21T04:22:27;11.88;;;7.65;;
21837;SDS011;11081;45.946;6.140;2023-11-21T04:24:56;14.55;;;6.90;;
21837;SDS011;11081;45.946;6.140;2023-11-21T04:27:24;12.35;;;6.88;;
21837;SDS011;11081;45.946;6.140;2023-11-21T04:29:52;11.52;;;6.38;;
21837;SDS011;11081;45.946;6.140;2023-11-21T04:32:20;13.02;;;6.82;;
21837;SDS011;11081;45.946;6.140;2023-11-21T04:34:47;15.02;;;7.35;;
21837;SDS011;11081;45.946;6.140;2023-11-21T04:37:15;14.95;;;7.25;;
21837;SDS011;11081;45.946;6.140;2023-11-21T04:39:43;15.73;;;7.28;;
21837;SDS011;11081;45.946;6.140;2023-11-21T04:42:12;12.95;;;7.18;;
21837;SDS011;11081;45.946;6.140;2023-11-21T04:44:40;14.35;;;7.25;;
21837;SDS011;11081;45.946;6.140;2023-11-21T04:47:10;11.50;;;6.63;;
21837;SDS011;11081;45.946;6.140;2023-11-21T04:49:41;14.35;;;6.97;;
21837;SDS011;11081;45.946;6.140;2023-11-21T04:52:10;18.92;;;7.53;;
21837;SDS011;11081;45.946;6.140;2023-11-21T04:54:38;12.52;;;6.57;;
21837;SDS011;11081;45.946;6.140;2023-11-21T04:57:06;13.20;;;7.05;;
21837;SDS011;11081;45.946;6.140;2023-11-21T04:59:36;13.70;;;7.03;;
21837;SDS011;11081;45.946;6.140;2023-11-21T05:02:04;18.45;;;9.30;;
21837;SDS011;11081;45.946;6.140;2023-11-21T05:04:32;15.90;;;6.72;;
21837;SDS011;11081;45.946;6.140;2023-11-21T05:06:59;14.48;;;7.53;;
21837;SDS011;11081;45.946;6.140;2023-11-21T05:09:28;16.23;;;6.93;;
21837;SDS011;11081;45.946;6.140;2023-11-21T05:11:58;13.48;;;6.50;;
21837;SDS011;11081;45.946;6.140;2023-11-21T05:14:26;15.73;;;7.25;;
21837;SDS011;11081;45.946;6.140;2023-11-21T05:16:55;11.77;;;6.90;;
21837;SDS011;11081;45.946;6.140;2023-11-21T05:19:23;13.20;;;6.75;;
21837;SDS011;11081;45.946;6.140;2023-11-21T05:21:53;15.68;;;6.82;;
21837;SDS011;11081;45.946;6.140;2023-11-21T05:24:21;12.85;;;6.47;;
21837;SDS011;11081;45.946;6.140;2023-11-21T05:26:49;15.32;;;5.20;;
21837;SDS011;11081;45.946;6.140;2023-11-21T05:29:17;10.43;;;4.47;;
21837;SDS011;11081;45.946;6.140;2023-11-21T05:31:45;9.77;;;4.90;;
21837;SDS011;11081;45.946;6.140;2023-11-21T05:34:14;10.70;;;5.22;;
21837;SDS011;11081;45.946;6.140;2023-11-21T05:36:44;10.10;;;4.88;;
21837;SDS011;11081;45.946;6.140;2023-11-21T05:39:13;11.65;;;4.60;;
21837;SDS011;11081;45.946;6.140;2023-11-21T05:41:43;14.27;;;4.40;;
21837;SDS011;11081;45.946;6.140;2023-11-21T05:44:15;9.32;;;5.05;;
21837;SDS011;11081;45.946;6.140;2023-11-21T05:46:43;8.45;;;4.97;;
21837;SDS011;11081;45.946;6.140;2023-11-21T05:49:11;13.77;;;6.05;;
21837;SDS011;11081;45.946;6.140;2023-11-21T05:51:40;13.25;;;5.68;;
21837;SDS011;11081;45.946;6.140;2023-11-21T05:54:08;14.35;;;5.50;;
21837;SDS011;11081;45.946;6.140;2023-11-21T05:56:35;10.23;;;4.97;;
21837;SDS011;11081;45.946;6.140;2023-11-21T05:59:03;11.43;;;4.97;;
21837;SDS011;11081;45.946;6.140;2023-11-21T06:01:32;11.25;;;5.45;;
21837;SDS011;11081;45.946;6.140;2023-11-21T06:04:01;11.82;;;5.55;;
21837;SDS011;11081;45.946;6.140;2023-11-21T06:06:30;13.13;;;4.80;;
21837;SDS011;11081;45.946;6.140;2023-11-21T06:08:59;12.05;;;4.80;;
21837;SDS011;11081;45.946;6.140;2023-11-21T06:11:27;12.70;;;5.47;;
21837;SDS011;11081;45.946;6.140;2023-11-21T06:13:55;15.43;;;4.93;;
21837;SDS011;11081;45.946;6.140;2023-11-21T06:16:23;11.70;;;5.03;;
21837;SDS011;11081;45.946;6.140;2023-11-21T06:18:51;14.27;;;5.07;;
21837;SDS011;11081;45.946;6.140;2023-11-21T06:21:19;13.32;;;5.32;;
21837;SDS011;11081;45.946;6.140;2023-11-21T06:23:47;11.38;;;5.68;;
21837;SDS011;11081;45.946;6.140;2023-11-21T06:26:20;10.13;;;5.20;;
21837;SDS011;11081;45.946;6.140;2023-11-21T06:28:48;9.05;;;5.10;;
21837;SDS011;11081;45.946;6.140;2023-11-21T06:31:17;12.65;;;5.72;;
21837;SDS011;11081;45.946;6.140;2023-11-21T06:33:46;11.18;;;5.32;;
21837;SDS011;11081;45.946;6.140;2023-11-21T06:36:14;15.75;;;6.20;;
21837;SDS011;11081;45.946;6.140;2023-11-21T06:38:42;12.30;;;5.60;;
21837;SDS011;11081;45.946;6.140;2023-11-21T06:41:12;16.63;;;5.97;;
21837;SDS011;11081;45.946;6.140;2023-11-21T06:43:43;10.73;;;5.93;;
21837;SDS011;11081;45.946;6.140;2023-11-21T06:46:12;11.98;;;6.20;;
21837;SDS011;11081;45.946;6.140;2023-11-21T06:48:42;14.13;;;6.03;;
21837;SDS011;11081;45.946;6.140;2023-11-21T06:51:10;9.95;;;6.00;;
21837;SDS011;11081;45.946;6.140;2023-11-21T06:53:39;9.63;;;5.90;;
21837;SDS011;11081;45.946;6.140;2023-11-21T06:56:14;11.63;;;5.55;;
21837;SDS011;11081;45.946;6.140;2023-11-21T06:58:44;12.40;;;6.25;;
21837;SDS011;11081;45.946;6.140;2023-11-21T07:01:13;12.95;;;6.13;;
21837;SDS011;11081;45.946;6.140;2023-11-21T07:03:41;8.63;;;4.68;;
21837;SDS011;11081;45.946;6.140;2023-11-21T07:06:09;12.20;;;4.47;;
21837;SDS011;11081;45.946;6.140;2023-11-21T07:08:37;13.75;;;4.50;;
21837;SDS011;11081;45.946;6.140;2023-11-21T07:11:05;10.50;;;4.50;;
21837;SDS011;11081;45.946;6.140;2023-11-21T07:13:33;14.18;;;5.72;;
21837;SDS011;11081;45.946;6.140;2023-11-21T07:16:03;13.32;;;5.88;;
21837;SDS011;11081;45.946;6.140;2023-11-21T07:18:31;16.88;;;6.70;;
21837;SDS011;11081;45.946;6.140;2023-11-21T07:20:59;18.27;;;6.35;;
21837;SDS011;11081;45.946;6.140;2023-11-21T07:23:27;16.30;;;6.70;;
21837;SDS011;11081;45.946;6.140;2023-11-21T07:25:55;19.30;;;6.72;;
21837;SDS011;11081;45.946;6.140;2023-11-21T07:28:23;9.95;;;5.90;;
21837;SDS011;11081;45.946;6.140;2023-11-21T07:30:52;16.80;;;6.60;;
21837;SDS011;11081;45.946;6.140;2023-11-21T07:33:21;15.15;;;6.65;;
21837;SDS011;11081;45.946;6.140;2023-11-21T07:35:49;9.27;;;5.70;;
21837;SDS011;11081;45.946;6.140;2023-11-21T07:38:16;8.77;;;4.70;;
21837;SDS011;11081;45.946;6.140;2023-11-21T07:40:44;12.98;;;4.60;;
21837;SDS011;11081;45.946;6.140;2023-11-21T07:43:12;5.75;;;3.85;;
21837;SDS011;11081;45.946;6.140;2023-11-21T07:45:40;9.10;;;3.88;;
21837;SDS011;11081;45.946;6.140;2023-11-21T07:48:10;8.63;;;4.20;;
21837;SDS011;11081;45.946;6.140;2023-11-21T07:50:40;10.40;;;4.30;;
21837;SDS011;11081;45.946;6.140;2023-11-21T07:53:07;7.05;;;3.50;;
21837;SDS011;11081;45.946;6.140;2023-11-21T07:55:35;8.23;;;4.00;;
21837;SDS011;11081;45.946;6.140;2023-11-21T07:58:04;6.35;;;4.15;;
21837;SDS011;11081;45.946;6.140;2023-11-21T08:00:32;8.02;;;3.60;;
21837;SDS011;11081;45.946;6.140;2023-11-21T08:03:01;10.82;;;4.35;;
21837;SDS011;11081;45.946;6.140;2023-11-21T08:05:29;8.82;;;3.80;;
21837;SDS011;11081;45.946;6.140;2023-11-21T08:08:04;9.68;;;4.00;;
21837;SDS011;11081;45.946;6.140;2023-11-21T08:10:32;7.15;;;2.70;;
21837;SDS011;11081;45.946;6.140;2023-11-21T08:13:02;8.93;;;3.28;;
21837;SDS011;11081;45.946;6.140;2023-11-21T08:15:30;7.88;;;3.17;;
21837;SDS011;11081;45.946;6.140;2023-11-21T08:17:59;11.25;;;3.10;;
21837;SDS011;11081;45.946;6.140;2023-11-21T08:20:26;4.90;;;2.65;;
21837;SDS011;11081;45.946;6.140;2023-11-21T08:22:54;15.27;;;5.55;;
21837;SDS011;11081;45.946;6.140;2023-11-21T08:25:24;18.08;;;7.28;;
21837;SDS011;11081;45.946;6.140;2023-11-21T08:27:53;16.40;;;7.75;;
21837;SDS011;11081;45.946;6.140;2023-11-21T08:30:21;9.85;;;4.75;;
21837;SDS011;11081;45.946;6.140;2023-11-21T08:32:50;8.70;;;4.85;;
21837;SDS011;11081;45.946;6.140;2023-11-21T08:35:20;9.68;;;5.30;;
21837;SDS011;11081;45.946;6.140;2023-11-21T08:37:48;11.30;;;4.88;;
21837;SDS011;11081;45.946;6.140;2023-11-21T08:40:19;12.52;;;4.70;;
21837;SDS011;11081;45.946;6.140;2023-11-21T08:42:48;10.07;;;3.00;;
21837;SDS011;11081;45.946;6.140;2023-11-21T08:45:18;5.07;;;2.95;;
21837;SDS011;11081;45.946;6.140;2023-11-21T08:47:46;9.70;;;4.07;;
21837;SDS011;11081;45.946;6.140;2023-11-21T08:50:14;10.23;;;4.07;;
21837;SDS011;11081;45.946;6.140;2023-11-21T08:52:42;13.18;;;3.75;;
21837;SDS011;11081;45.946;6.140;2023-11-21T08:55:12;8.88;;;3.20;;
21837;SDS011;11081;45.946;6.140;2023-11-21T08:57:40;14.55;;;3.58;;
21837;SDS011;11081;45.946;6.140;2023-11-21T09:00:12;8.05;;;3.00;;
21837;SDS011;11081;45.946;6.140;2023-11-21T09:02:43;6.10;;;2.47;;
21837;SDS011;11081;45.946;6.140;2023-11-21T09:05:12;5.05;;;2.45;;
21837;SDS011;11081;45.946;6.140;2023-11-21T09:07:41;7.35;;;2.40;;
21837;SDS011;11081;45.946;6.140;2023-11-21T09:10:09;7.38;;;2.90;;
21837;SDS011;11081;45.946;6.140;2023-11-21T09:12:38;7.57;;;3.00;;
21837;SDS011;11081;45.946;6.140;2023-11-21T09:15:06;8.43;;;2.85;;
21837;SDS011;11081;45.946;6.140;2023-11-21T09:17:37;9.57;;;3.10;;
21837;SDS011;11081;45.946;6.140;2023-11-21T09:20:07;10.00;;;3.45;;
21837;SDS011;11081;45.946;6.140;2023-11-21T09:22:36;7.25;;;2.60;;
21837;SDS011;11081;45.946;6.140;2023-11-21T09:25:05;9.60;;;2.90;;
21837;SDS011;11081;45.946;6.140;2023-11-21T09:27:34;9.45;;;3.20;;
21837;SDS011;11081;45.946;6.140;2023-11-21T09:30:03;8.05;;;2.85;;
21837;SDS011;11081;45.946;6.140;2023-11-21T09:32:31;7.47;;;2.13;;
21837;SDS011;11081;45.946;6.140;2023-11-21T09:35:03;7.80;;;2.35;;
21837;SDS011;11081;45.946;6.140;2023-11-21T09:37:31;10.27;;;2.38;;
21837;SDS011;11081;45.946;6.140;2023-11-21T09:40:00;5.53;;;2.10;;
21837;SDS011;11081;45.946;6.140;2023-11-21T09:42:29;5.38;;;2.17;;
21837;SDS011;11081;45.946;6.140;2023-11-21T09:45:01;8.60;;;3.63;;
21837;SDS011;11081;45.946;6.140;2023-11-21T09:47:34;8.25;;;3.47;;
21837;SDS011;11081;45.946;6.140;2023-11-21T09:50:07;6.10;;;3.38;;
21837;SDS011;11081;45.946;6.140;2023-11-21T09:52:53;12.50;;;4.32;;
21837;SDS011;11081;45.946;6.140;2023-11-21T09:55:27;9.05;;;4.63;;
21837;SDS011;11081;45.946;6.140;2023-11-21T09:57:57;11.38;;;3.63;;
21837;SDS011;11081;45.946;6.140;2023-11-21T10:00:27;6.55;;;3.60;;
21837;SDS011;11081;45.946;6.140;2023-11-21T10:02:58;5.80;;;3.17;;
21837;SDS011;11081;45.946;6.140;2023-11-21T10:05:28;12.07;;;4.35;;
21837;SDS011;11081;45.946;6.140;2023-11-21T10:07:56;8.35;;;3.55;;
21837;SDS011;11081;45.946;6.140;2023-11-21T10:10:25;8.50;;;3.50;;
21837;SDS011;11081;45.946;6.140;2023-11-21T10:12:55;10.77;;;4.18;;
21837;SDS011;11081;45.946;6.140;2023-11-21T10:15:24;8.48;;;3.17;;
21837;SDS011;11081;45.946;6.140;2023-11-21T10:17:52;10.63;;;3.42;;
21837;SDS011;11081;45.946;6.140;2023-11-21T10:20:22;7.90;;;2.17;;
21837;SDS011;11081;45.946;6.140;2023-11-21T10:22:53;8.68;;;1.95;;
21837;SDS011;11081;45.946;6.140;2023-11-21T10:25:23;10.05;;;2.53;;
21837;SDS011;11081;45.946;6.140;2023-11-21T10:27:55;5.95;;;1.70;;
21837;SDS011;11081;45.946;6.140;2023-11-21T10:30:32;6.13;;;1.92;;
21837;SDS011;11081;45.946;6.140;2023-11-21T10:33:03;7.47;;;2.50;;
21837;SDS011;11081;45.946;6.140;2023-11-21T10:35:38;8.57;;;2.38;;
21837;SDS011;11081;45.946;6.140;2023-11-21T10:38:08;6.82;;;2.20;;
21837;SDS011;11081;45.946;6.140;2023-11-21T10:40:37;7.03;;;2.10;;
21837;SDS011;11081;45.946;6.140;2023-11-21T10:43:08;12.13;;;2.22;;
21837;SDS011;11081;45.946;6.140;2023-11-21T10:45:37;5.57;;;2.17;;
21837;SDS011;11081;45.946;6.140;2023-11-21T10:48:05;7.07;;;2.13;;
21837;SDS011;11081;45.946;6.140;2023-11-21T10:50:35;8.00;;;2.33;;
21837;SDS011;11081;45.946;6.140;2023-11-21T10:53:03;8.18;;;2.10;;
21837;SDS011;11081;45.946;6.140;2023-11-21T10:55:33;4.72;;;2.00;;
21837;SDS011;11081;45.946;6.140;2023-11-21T10:58:02;6.90;;;2.03;;
21837;SDS011;11081;45.946;6.140;2023-11-21T11:00:32;6.22;;;2.20;;
21837;SDS011;11081;45.946;6.140;2023-11-21T11:03:01;6.45;;;1.92;;
21837;SDS011;11081;45.946;6.140;2023-11-21T11:05:30;6.88;;;2.15;;
21837;SDS011;11081;45.946;6.140;2023-11-21T11:08:00;7.68;;;1.77;;
21837;SDS011;11081;45.946;6.140;2023-11-21T11:10:33;5.85;;;1.63;;
21837;SDS011;11081;45.946;6.140;2023-11-21T11:13:01;5.78;;;1.70;;
21837;SDS011;11081;45.946;6.140;2023-11-21T11:15:29;6.35;;;1.58;;
21837;SDS011;11081;45.946;6.140;2023-11-21T11:17:57;5.63;;;1.35;;
21837;SDS011;11081;45.946;6.140;2023-11-21T11:20:34;4.30;;;1.48;;
21837;SDS011;11081;45.946;6.140;2023-11-21T11:23:10;7.10;;;1.35;;
21837;SDS011;11081;45.946;6.140;2023-11-21T11:25:57;6.75;;;1.58;;
21837;SDS011;11081;45.946;6.140;2023-11-21T11:28:39;4.50;;;1.38;;
21837;SDS011;11081;45.946;6.140;2023-11-21T11:31:18;4.47;;;1.23;;
21837;SDS011;11081;45.946;6.140;2023-11-21T11:33:57;6.43;;;1.77;;
21837;SDS011;11081;45.946;6.140;2023-11-21T11:36:34;6.05;;;2.03;;
21837;SDS011;11081;45.946;6.140;2023-11-21T11:42:01;6.47;;;1.50;;
21837;SDS011;11081;45.946;6.140;2023-11-21T11:44:50;4.70;;;1.40;;
21837;SDS011;11081;45.946;6.140;2023-11-21T11:47:22;4.97;;;1.60;;
21837;SDS011;11081;45.946;6.140;2023-11-21T11:49:57;6.45;;;1.75;;
21837;SDS011;11081;45.946;6.140;2023-11-21T11:52:33;8.88;;;1.95;;
21837;SDS011;11081;45.946;6.140;2023-11-21T11:55:06;9.90;;;2.35;;
21837;SDS011;11081;45.946;6.140;2023-11-21T11:57:39;8.88;;;2.40;;
21837;SDS011;11081;45.946;6.140;2023-11-21T12:00:17;7.00;;;3.05;;
21837;SDS011;11081;45.946;6.140;2023-11-21T12:02:47;6.93;;;2.58;;
21837;SDS011;11081;45.946;6.140;2023-11-21T12:05:16;5.57;;;2.20;;
21837;SDS011;11081;45.946;6.140;2023-11-21T12:07:46;5.85;;;2.13;;
21837;SDS011;11081;45.946;6.140;2023-11-21T12:10:16;7.07;;;2.33;;
21837;SDS011;11081;45.946;6.140;2023-11-21T12:12:47;10.82;;;2.35;;
21837;SDS011;11081;45.946;6.140;2023-11-21T12:15:17;5.72;;;2.33;;
21837;SDS011;11081;45.946;6.140;2023-11-21T12:17:45;6.38;;;2.42;;
21837;SDS011;11081;45.946;6.140;2023-11-21T12:20:16;6.18;;;2.53;;
21837;SDS011;11081;45.946;6.140;2023-11-21T12:22:48;4.63;;;2.30;;
21837;SDS011;11081;45.946;6.140;2023-11-21T12:25:16;7.97;;;1.98;;
21837;SDS011;11081;45.946;6.140;2023-11-21T12:27:48;6.00;;;2.10;;
21837;SDS011;11081;45.946;6.140;2023-11-21T12:30:17;3.42;;;1.92;;
21837;SDS011;11081;45.946;6.140;2023-11-21T12:32:47;2.95;;;1.67;;
21837;SDS011;11081;45.946;6.140;2023-11-21T12:35:18;5.75;;;2.10;;
21837;SDS011;11081;45.946;6.140;2023-11-21T12:37:47;5.50;;;1.85;;
21837;SDS011;11081;45.946;6.140;2023-11-21T12:40:17;5.85;;;2.10;;
21837;SDS011;11081;45.946;6.140;2023-11-21T12:42:47;3.60;;;1.60;;
21837;SDS011;11081;45.946;6.140;2023-11-21T12:45:20;2.45;;;1.50;;
21837;SDS011;11081;45.946;6.140;2023-11-21T12:47:48;2.75;;;1.70;;
21837;SDS011;11081;45.946;6.140;2023-11-21T12:50:21;3.13;;;1.58;;
21837;SDS011;11081;45.946;6.140;2023-11-21T12:52:53;5.80;;;1.63;;
21837;SDS011;11081;45.946;6.140;2023-11-21T12:55:21;2.53;;;1.40;;
21837;SDS011;11081;45.946;6.140;2023-11-21T12:57:51;4.18;;;1.45;;
21837;SDS011;11081;45.946;6.140;2023-11-21T13:00:27;4.40;;;1.80;;
21837;SDS011;11081;45.946;6.140;2023-11-21T13:02:56;3.92;;;1.20;;
21837;SDS011;11081;45.946;6.140;2023-11-21T13:05:29;3.80;;;1.58;;
21837;SDS011;11081;45.946;6.140;2023-11-21T13:07:58;4.10;;;1.60;;
21837;SDS011;11081;45.946;6.140;2023-11-21T13:10:30;4.75;;;2.10;;
21837;SDS011;11081;45.946;6.140;2023-11-21T13:13:04;5.57;;;1.75;;
21837;SDS011;11081;45.946;6.140;2023-11-21T13:15:38;2.13;;;1.40;;
21837;SDS011;11081;45.946;6.140;2023-11-21T13:18:07;3.40;;;1.10;;
21837;SDS011;11081;45.946;6.140;2023-11-21T13:20:37;3.20;;;0.90;;
21837;SDS011;11081;45.946;6.140;2023-11-21T13:23:07;1.95;;;0.88;;
21837;SDS011;11081;45.946;6.140;2023-11-21T13:25:38;1.42;;;0.68;;
21837;SDS011;11081;45.946;6.140;2023-11-21T13:28:09;2.13;;;0.80;;
21837;SDS011;11081;45.946;6.140;2023-11-21T13:30:38;2.47;;;0.60;;
21837;SDS011;11081;45.946;6.140;2023-11-21T13:33:06;1.95;;;0.60;;
21837;SDS011;11081;45.946;6.140;2023-11-21T13:35:36;1.27;;;0.80;;
21837;SDS011;11081;45.946;6.140;2023-11-21T13:38:08;3.20;;;1.50;;
21837;SDS011;11081;45.946;6.140;2023-11-21T13:40:38;1.98;;;1.20;;
21837;SDS011;11081;45.946;6.140;2023-11-21T13:43:11;2.70;;;1.40;;
21837;SDS011;11081;45.946;6.140;2023-11-21T13:45:40;1.90;;;0.95;;
21837;SDS011;11081;45.946;6.140;2023-11-21T13:48:11;3.53;;;1.58;;
21837;SDS011;11081;45.946;6.140;2023-11-21T13:50:41;2.30;;;1.17;;
21837;SDS011;11081;45.946;6.140;2023-11-21T13:53:15;1.85;;;0.90;;
21837;SDS011;11081;45.946;6.140;2023-11-21T13:55:48;2.75;;;1.42;;
21837;SDS011;11081;45.946;6.140;2023-11-21T13:58:18;1.73;;;1.25;;
21837;SDS011;11081;45.946;6.140;2023-11-21T14:00:51;1.27;;;0.93;;
21837;SDS011;11081;45.946;6.140;2023-11-21T14:03:23;1.42;;;1.05;;
21837;SDS011;11081;45.946;6.140;2023-11-21T14:06:01;1.77;;;1.00;;
21837;SDS011;11081;45.946;6.140;2023-11-21T14:08:35;2.10;;;0.75;;
21837;SDS011;11081;45.946;6.140;2023-11-21T14:11:03;3.28;;;1.05;;
21837;SDS011;11081;45.946;6.140;2023-11-21T14:13:34;1.17;;;0.80;;
21837;SDS011;11081;45.946;6.140;2023-11-21T14:16:02;1.30;;;0.63;;
21837;SDS011;11081;45.946;6.140;2023-11-21T14:18:33;1.58;;;0.55;;
21837;SDS011;11081;45.946;6.140;2023-11-21T14:21:05;2.13;;;0.70;;
21837;SDS011;11081;45.946;6.140;2023-11-21T14:23:34;1.95;;;0.90;;
21837;SDS011;11081;45.946;6.140;2023-11-21T14:26:05;1.13;;;0.70;;
21837;SDS011;11081;45.946;6.140;2023-11-21T14:28:35;0.98;;;0.70;;
21837;SDS011;11081;45.946;6.140;2023-11-21T14:31:03;2.05;;;0.70;;
21837;SDS011;11081;45.946;6.140;2023-11-21T14:33:31;2.10;;;0.93;;
21837;SDS011;11081;45.946;6.140;2023-11-21T14:35:59;2.80;;;0.90;;
21837;SDS011;11081;45.946;6.140;2023-11-21T14:38:28;1.33;;;0.60;;
21837;SDS011;11081;45.946;6.140;2023-11-21T14:40:56;2.65;;;0.93;;
21837;SDS011;11081;45.946;6.140;2023-11-21T14:43:24;1.33;;;0.70;;
21837;SDS011;11081;45.946;6.140;2023-11-21T14:45:53;1.17;;;0.60;;
21837;SDS011;11081;45.946;6.140;2023-11-21T14:48:22;4.20;;;0.70;;
21837;SDS011;11081;45.946;6.140;2023-11-21T14:51:08;1.40;;;0.75;;
21837;SDS011;11081;45.946;6.140;2023-11-21T14:53:54;1.65;;;0.68;;
21837;SDS011;11081;45.946;6.140;2023-11-21T14:56:26;1.35;;;0.70;;
21837;SDS011;11081;45.946;6.140;2023-11-21T14:58:57;0.98;;;0.60;;
21837;SDS011;11081;45.946;6.140;2023-11-21T15:01:32;1.30;;;0.60;;
21837;SDS011;11081;45.946;6.140;2023-11-21T15:04:12;3.10;;;0.63;;